createdAt,value
2019-05-05T00:02:28.885Z,99.90
2019-05-05T00:05:24.611Z,99.90
2019-05-05T00:07:54.426Z,99.90
2019-05-05T00:10:31.103Z,99.90
2019-05-05T00:13:12.542Z,99.90
2019-05-05T00:16:00.037Z,99.90
2019-05-05T00:18:30.763Z,99.90
2019-05-05T00:21:01.331Z,99.90
2019-05-05T00:23:31.086Z,99.90
2019-05-05T00:26:01.571Z,99.90
2019-05-05T00:28:32.739Z,99.90
2019-05-05T00:31:04.129Z,99.90
2019-05-05T00:33:34.346Z,99.90
2019-05-05T00:36:07.753Z,99.90
2019-05-05T00:38:49.492Z,99.90
2019-05-05T00:41:18.993Z,99.90
2019-05-05T00:43:48.496Z,99.90
2019-05-05T00:46:35.287Z,99.90
2019-05-05T00:49:05.393Z,99.90
2019-05-05T00:51:41.030Z,99.90
2019-05-05T00:54:10.549Z,99.90
2019-05-05T00:59:51.716Z,99.90
2019-05-05T01:02:30.625Z,99.90
2019-05-05T01:05:22.065Z,99.90
2019-05-05T01:07:51.586Z,99.90
2019-05-05T01:10:21.148Z,99.90
2019-05-05T01:12:50.670Z,99.90
2019-05-05T01:15:20.328Z,99.90
2019-05-05T01:17:49.806Z,99.90
2019-05-05T01:20:19.418Z,99.90
2019-05-05T01:22:49.347Z,99.90
2019-05-05T01:25:20.870Z,99.90
2019-05-05T01:27:50.378Z,99.90
2019-05-05T01:30:31.049Z,99.90
2019-05-05T01:33:09.660Z,99.90
2019-05-05T01:35:39.281Z,99.90
2019-05-05T01:38:16.581Z,99.90
2019-05-05T01:41:04.254Z,99.90
2019-05-05T01:43:34.617Z,99.90
2019-05-05T01:46:05.078Z,99.90
2019-05-05T01:48:35.153Z,99.90
2019-05-05T01:51:05.084Z,99.90
2019-05-05T02:09:00.660Z,99.90
2019-05-05T02:19:15.998Z,99.90
2019-05-05T02:21:45.745Z,99.90
2019-05-05T02:24:35.461Z,99.90
2019-05-05T02:30:09.429Z,99.90
2019-05-05T02:33:02.003Z,99.90
2019-05-05T02:35:35.318Z,99.90
2019-05-05T02:38:06.762Z,99.90
2019-05-05T02:40:37.607Z,99.90
2019-05-05T02:43:08.005Z,99.90
2019-05-05T02:46:17.076Z,99.90
2019-05-05T02:48:49.550Z,99.90
2019-05-05T02:51:20.180Z,99.90
2019-05-05T02:53:53.627Z,99.90
2019-05-05T02:56:28.169Z,99.90
2019-05-05T02:59:01.726Z,99.90
2019-05-05T03:01:37.979Z,99.90
2019-05-05T03:04:09.311Z,99.90
2019-05-05T03:06:43.744Z,99.90
2019-05-05T03:09:14.935Z,99.90
2019-05-05T03:11:46.647Z,99.90
2019-05-05T03:14:19.153Z,99.90
2019-05-05T03:16:49.579Z,99.90
2019-05-05T03:19:21.111Z,99.90
2019-05-05T03:21:50.969Z,99.90
2019-05-05T03:24:20.451Z,99.90
2019-05-05T03:26:50.287Z,99.90
2019-05-05T03:29:21.488Z,99.90
2019-05-05T03:31:51.631Z,99.90
2019-05-05T03:34:23.929Z,99.90
2019-05-05T03:36:54.346Z,99.90
2019-05-05T03:39:25.967Z,99.90
2019-05-05T03:42:18.738Z,99.90
2019-05-05T03:45:08.386Z,99.90
2019-05-05T03:47:38.225Z,99.90
2019-05-05T03:50:08.267Z,99.90
2019-05-05T03:52:37.824Z,99.90
2019-05-05T03:55:07.847Z,99.90
2019-05-05T03:57:37.365Z,99.90
2019-05-05T04:00:08.282Z,99.90
2019-05-05T04:02:53.849Z,99.90
2019-05-05T04:05:31.078Z,99.90
2019-05-05T04:08:00.810Z,99.90
2019-05-05T04:10:30.341Z,99.90
2019-05-05T04:13:00.572Z,99.90
2019-05-05T04:15:30.654Z,99.90
2019-05-05T04:18:28.282Z,99.90
2019-05-05T04:20:57.900Z,99.90
2019-05-05T04:23:27.434Z,99.90
2019-05-05T04:25:57.019Z,99.90
2019-05-05T04:28:26.496Z,99.90
2019-05-05T04:30:56.075Z,99.90
2019-05-05T04:33:25.614Z,99.90
2019-05-05T04:35:55.148Z,99.90
2019-05-05T04:38:24.598Z,99.90
2019-05-05T04:40:54.284Z,99.90
2019-05-05T04:43:24.644Z,99.90
2019-05-05T04:45:54.303Z,99.90
2019-05-05T04:48:29.482Z,99.90
2019-05-05T04:51:05.201Z,99.90
2019-05-05T04:53:56.520Z,99.90
2019-05-05T04:56:26.103Z,99.90
2019-05-05T04:58:55.609Z,99.90
2019-05-05T05:01:25.106Z,99.90
2019-05-05T05:04:07.439Z,99.90
2019-05-05T05:06:43.687Z,99.90
2019-05-05T05:09:14.665Z,99.90
2019-05-05T05:11:44.397Z,99.90
2019-05-05T05:14:14.457Z,99.90
2019-05-05T05:16:44.287Z,99.90
2019-05-05T05:19:13.920Z,99.90
2019-05-05T05:21:58.038Z,99.90
2019-05-05T05:24:15.325Z,99.90
2019-05-05T05:26:44.775Z,99.90
2019-05-05T05:29:15.134Z,99.90
2019-05-05T05:31:44.883Z,99.90
2019-05-05T05:34:14.960Z,99.90
2019-05-05T05:36:44.730Z,99.90
2019-05-05T05:39:24.485Z,99.90
2019-05-05T05:41:54.199Z,99.90
2019-05-05T05:44:41.628Z,99.90
2019-05-05T05:47:44.117Z,99.90
2019-05-05T05:50:21.669Z,99.90
2019-05-05T05:52:51.324Z,99.90
2019-05-05T05:55:20.887Z,99.90
2019-05-05T05:57:50.324Z,99.90
2019-05-05T06:00:20.209Z,99.90
2019-05-05T06:02:49.801Z,99.90
2019-05-05T06:05:19.253Z,99.90
2019-05-05T06:07:48.783Z,99.90
2019-05-05T06:10:24.215Z,99.90
2019-05-05T06:12:49.533Z,99.90
2019-05-05T06:15:19.133Z,99.90
2019-05-05T06:17:48.651Z,99.90
2019-05-05T06:20:18.167Z,99.90
2019-05-05T06:22:47.713Z,99.90
2019-05-05T06:25:17.268Z,99.90
2019-05-05T06:27:46.694Z,99.90
2019-05-05T06:30:16.438Z,99.90
2019-05-05T06:32:45.913Z,99.90
2019-05-05T06:35:15.506Z,99.90
2019-05-05T06:37:54.532Z,99.90
2019-05-05T06:40:44.454Z,99.90
2019-05-05T06:43:38.988Z,99.90
2019-05-05T06:46:09.807Z,99.90
2019-05-05T06:48:39.281Z,99.90
2019-05-05T06:51:08.826Z,99.90
2019-05-05T06:53:41.096Z,99.90
2019-05-05T06:56:10.973Z,99.90
2019-05-05T06:58:40.517Z,99.90
2019-05-05T07:01:10.157Z,99.90
2019-05-05T07:03:39.725Z,99.90
2019-05-05T07:06:09.980Z,99.90
2019-05-05T07:08:39.491Z,99.90
2019-05-05T07:11:09.024Z,99.90
2019-05-05T07:13:38.660Z,99.90
2019-05-05T07:16:08.214Z,99.90
2019-05-05T07:18:38.187Z,99.90
2019-05-05T07:21:07.758Z,99.90
2019-05-05T07:23:58.017Z,99.90
2019-05-05T07:26:27.604Z,99.90
2019-05-05T07:28:57.130Z,99.90
2019-05-05T07:31:26.658Z,99.90
2019-05-05T07:33:56.231Z,99.90
2019-05-05T07:36:54.636Z,99.90
2019-05-05T07:39:24.441Z,99.90
2019-05-05T07:41:54.292Z,99.90
2019-05-05T07:44:29.354Z,99.90
2019-05-05T07:46:56.234Z,99.90
2019-05-05T07:49:25.790Z,99.90
2019-05-05T07:51:55.395Z,99.90
2019-05-05T07:54:27.234Z,99.90
2019-05-05T07:56:56.768Z,99.90
2019-05-05T07:59:26.386Z,99.90
2019-05-05T08:01:55.979Z,99.90
2019-05-05T08:04:29.041Z,99.90
2019-05-05T08:06:58.602Z,99.90
2019-05-05T08:09:28.130Z,99.90
2019-05-05T08:11:59.230Z,99.90
2019-05-05T08:14:28.992Z,99.90
2019-05-05T08:17:29.564Z,99.90
2019-05-05T08:20:03.970Z,99.90
2019-05-05T08:22:34.048Z,99.90
2019-05-05T08:25:40.215Z,99.90
2019-05-05T08:28:34.189Z,99.90
2019-05-05T08:31:34.127Z,99.90
2019-05-05T08:34:03.938Z,99.90
2019-05-05T08:36:39.445Z,99.90
2019-05-05T08:39:09.611Z,99.90
2019-05-05T08:41:39.113Z,99.90
2019-05-05T08:46:57.315Z,99.90
2019-05-05T08:49:28.705Z,99.90
2019-05-05T08:51:58.190Z,99.90
2019-05-05T08:54:28.517Z,99.90
2019-05-05T08:56:58.223Z,99.90
2019-05-05T08:59:34.439Z,99.90
2019-05-05T09:02:04.640Z,99.90
2019-05-05T09:04:34.617Z,99.90
2019-05-05T09:07:06.515Z,99.90
2019-05-05T09:09:39.010Z,99.90
2019-05-05T09:12:08.599Z,99.90
2019-05-05T09:14:38.073Z,99.90
2019-05-05T09:17:07.643Z,99.90
2019-05-05T09:19:37.213Z,99.90
2019-05-05T09:22:08.705Z,99.90
2019-05-05T09:24:56.862Z,99.90
2019-05-05T09:27:45.340Z,99.90
2019-05-05T09:30:15.685Z,99.90
2019-05-05T09:32:45.264Z,99.90
2019-05-05T09:35:14.788Z,99.90
2019-05-05T09:37:44.466Z,99.90
2019-05-05T09:40:15.666Z,99.90
2019-05-05T09:42:45.259Z,99.90
2019-05-05T09:45:15.055Z,99.90
2019-05-05T09:47:45.053Z,99.90
2019-05-05T09:50:16.489Z,99.90
2019-05-05T09:52:46.055Z,99.90
2019-05-05T09:55:15.631Z,99.90
2019-05-05T09:57:45.299Z,99.90
2019-05-05T10:00:15.242Z,99.90
2019-05-05T10:02:45.404Z,99.90
2019-05-05T10:05:15.442Z,99.90
2019-05-05T10:07:46.985Z,99.90
2019-05-05T10:10:17.294Z,99.90
2019-05-05T10:12:46.794Z,99.90
2019-05-05T10:15:16.731Z,99.90
2019-05-05T10:17:48.519Z,99.90
2019-05-05T10:20:18.294Z,99.90
2019-05-05T10:22:47.815Z,99.90
2019-05-05T10:25:40.125Z,99.90
2019-05-05T10:28:09.608Z,99.90
2019-05-05T10:30:39.153Z,99.90
2019-05-05T10:33:08.563Z,99.90
2019-05-05T10:35:38.108Z,99.90
2019-05-05T10:38:07.653Z,99.90
2019-05-05T10:40:37.270Z,99.90
2019-05-05T10:43:07.984Z,99.90
2019-05-05T10:45:37.566Z,99.90
2019-05-05T10:48:07.417Z,99.90
2019-05-05T10:50:36.979Z,99.90
2019-05-05T10:53:06.706Z,99.90
2019-05-05T10:55:38.462Z,99.90
2019-05-05T10:58:07.755Z,99.90
2019-05-05T11:01:06.727Z,99.90
2019-05-05T11:03:39.319Z,99.90
2019-05-05T11:06:10.944Z,99.90
2019-05-05T11:08:40.915Z,99.90
2019-05-05T11:11:10.490Z,99.90
2019-05-05T11:13:42.740Z,99.90
2019-05-05T11:16:11.310Z,99.90
2019-05-05T11:18:42.513Z,99.90
2019-05-05T11:21:14.431Z,99.90
2019-05-05T11:23:44.867Z,99.90
2019-05-05T11:26:14.600Z,99.90
2019-05-05T11:28:50.939Z,99.90
2019-05-05T11:31:20.479Z,99.90
2019-05-05T11:33:54.834Z,99.90
2019-05-05T11:36:34.828Z,99.90
2019-05-05T11:39:06.118Z,99.90
2019-05-05T11:41:35.719Z,99.90
2019-05-05T11:44:05.214Z,99.90
2019-05-05T11:46:44.120Z,99.90
2019-05-05T11:49:13.963Z,99.90
2019-05-05T11:51:43.837Z,99.90
2019-05-05T11:54:16.342Z,99.90
2019-05-05T11:56:45.849Z,99.90
2019-05-05T11:59:15.631Z,99.90
2019-05-05T12:01:45.415Z,99.90
2019-05-05T12:04:15.706Z,99.90
2019-05-05T12:06:45.357Z,99.90
2019-05-05T12:09:21.666Z,99.90
2019-05-05T12:11:51.142Z,99.90
2019-05-05T12:14:26.548Z,99.90
2019-05-05T12:16:54.374Z,99.90
2019-05-05T12:19:24.453Z,99.90
2019-05-05T12:21:54.843Z,99.90
2019-05-05T12:24:29.043Z,99.90
2019-05-05T12:27:17.077Z,99.90
2019-05-05T12:29:51.958Z,99.90
2019-05-05T12:32:21.526Z,99.90
2019-05-05T12:34:51.075Z,99.90
2019-05-05T12:37:20.661Z,99.90
2019-05-05T12:39:50.186Z,99.90
2019-05-05T12:42:20.128Z,99.90
2019-05-05T12:45:09.618Z,99.90
2019-05-05T12:47:57.190Z,99.90
2019-05-05T12:50:27.066Z,99.90
2019-05-05T12:52:56.678Z,99.90
2019-05-05T12:55:38.937Z,99.90
2019-05-05T12:57:57.607Z,99.90
2019-05-05T13:00:27.239Z,99.90
2019-05-05T13:02:56.781Z,99.90
2019-05-05T13:05:26.388Z,99.90
2019-05-05T13:07:55.890Z,99.90
2019-05-05T13:10:26.008Z,99.90
2019-05-05T13:12:55.585Z,99.90
2019-05-05T13:15:25.080Z,99.90
2019-05-05T13:17:54.780Z,99.90
2019-05-05T13:20:33.998Z,99.90
2019-05-05T13:23:14.570Z,99.90
2019-05-05T13:26:04.395Z,99.90
2019-05-05T13:28:34.503Z,99.90
2019-05-05T13:31:04.691Z,99.90
2019-05-05T13:33:37.119Z,99.90
2019-05-05T13:36:05.586Z,99.90
2019-05-05T13:38:35.081Z,99.90
2019-05-05T13:41:05.713Z,99.90
2019-05-05T13:43:35.256Z,99.90
2019-05-05T13:46:13.977Z,99.90
2019-05-05T13:48:44.425Z,99.90
2019-05-05T13:51:14.722Z,99.90
2019-05-05T13:53:44.849Z,99.90
2019-05-05T13:56:15.404Z,99.90
2019-05-05T13:58:45.188Z,99.90
2019-05-05T14:01:14.803Z,99.90
2019-05-05T14:03:45.050Z,99.90
2019-05-05T14:06:14.901Z,99.90
2019-05-05T14:08:44.852Z,99.90
2019-05-05T14:11:14.628Z,99.90
2019-05-05T14:13:46.653Z,99.90
2019-05-05T14:16:15.743Z,99.90
2019-05-05T14:18:45.315Z,99.90
2019-05-05T14:21:14.819Z,99.90
2019-05-05T14:24:14.304Z,99.90
2019-05-05T14:26:43.584Z,99.90
2019-05-05T14:29:14.983Z,99.90
2019-05-05T14:31:44.559Z,99.90
2019-05-05T14:34:23.161Z,99.90
2019-05-05T14:37:11.222Z,99.90
2019-05-05T14:39:40.809Z,99.90
2019-05-05T14:42:10.416Z,99.90
2019-05-05T14:44:39.873Z,99.90
2019-05-05T14:47:09.444Z,99.90
2019-05-05T14:49:39.180Z,99.90
2019-05-05T14:52:08.916Z,99.90
2019-05-05T14:54:38.454Z,99.90
2019-05-05T14:57:08.133Z,99.90
2019-05-05T14:59:37.774Z,99.90
2019-05-05T15:02:07.283Z,99.90
2019-05-05T15:04:39.211Z,99.90
2019-05-05T15:07:28.246Z,99.90
2019-05-05T15:10:14.467Z,99.90
2019-05-05T15:12:50.866Z,99.90
2019-05-05T15:15:23.633Z,99.90
2019-05-05T15:17:53.848Z,99.90
2019-05-05T15:20:24.515Z,99.90
2019-05-05T15:22:55.606Z,99.90
2019-05-05T15:25:36.065Z,99.90
2019-05-05T15:28:06.656Z,99.90
2019-05-05T15:30:36.497Z,99.90
2019-05-05T15:33:07.071Z,99.90
2019-05-05T15:35:39.795Z,99.90
2019-05-05T15:38:09.346Z,99.90
2019-05-05T15:40:38.927Z,99.90
2019-05-05T15:43:08.514Z,99.90
2019-05-05T15:45:38.074Z,99.90
2019-05-05T15:48:07.839Z,99.90
2019-05-05T15:50:37.951Z,99.90
2019-05-05T15:53:07.610Z,99.90
2019-05-05T15:55:37.255Z,99.90
2019-05-05T15:58:06.842Z,99.90
2019-05-05T16:00:36.466Z,99.90
2019-05-05T16:03:07.281Z,99.90
2019-05-05T16:05:37.021Z,99.90
2019-05-05T16:08:06.622Z,99.90
2019-05-05T16:10:36.253Z,99.90
2019-05-05T16:13:05.855Z,99.90
2019-05-05T16:15:55.707Z,99.90
2019-05-05T16:18:33.605Z,99.90
2019-05-05T16:21:54.407Z,99.90
2019-05-05T16:24:26.484Z,99.90
2019-05-05T16:27:21.814Z,99.90
2019-05-05T16:30:21.101Z,99.90
2019-05-05T16:32:54.792Z,99.90
2019-05-05T16:35:24.164Z,99.90
2019-05-05T16:37:53.703Z,99.90
2019-05-05T16:40:40.906Z,99.90
2019-05-05T16:43:16.548Z,99.90
2019-05-05T16:45:45.281Z,99.90
2019-05-05T16:48:15.039Z,99.90
2019-05-05T16:50:45.248Z,99.90
2019-05-05T16:53:34.383Z,99.90
2019-05-05T16:56:24.254Z,99.90
2019-05-05T16:58:55.024Z,99.90
2019-05-05T17:01:27.428Z,99.90
2019-05-05T17:04:09.218Z,99.90
2019-05-05T17:06:54.653Z,99.80
2019-05-05T17:09:24.328Z,99.90
2019-05-05T17:12:14.119Z,99.90
2019-05-05T17:15:29.592Z,99.90
2019-05-05T17:18:36.009Z,99.60
2019-05-05T17:21:19.062Z,98.80
2019-05-05T17:23:48.739Z,98.20
2019-05-05T17:26:18.365Z,98.10
2019-05-05T17:28:55.823Z,98.20
2019-05-05T17:31:26.267Z,98.70
2019-05-05T17:34:16.587Z,99.40
2019-05-05T17:36:48.400Z,99.90
2019-05-05T17:39:18.530Z,99.90
2019-05-05T17:42:15.863Z,99.90
2019-05-05T17:45:04.001Z,99.90
2019-05-05T17:47:53.938Z,99.90
2019-05-05T17:50:30.347Z,99.90
2019-05-05T17:53:14.877Z,99.90
2019-05-05T17:55:44.714Z,99.90
2019-05-05T17:58:14.632Z,99.90
2019-05-05T18:00:50.419Z,99.90
2019-05-05T18:03:20.287Z,99.90
2019-05-05T18:06:07.680Z,99.90
2019-05-05T18:08:55.184Z,99.90
2019-05-05T18:11:35.228Z,99.90
2019-05-05T18:14:14.577Z,99.90
2019-05-05T18:16:44.786Z,99.90
2019-05-05T18:19:17.659Z,99.90
2019-05-05T18:21:50.003Z,99.90
2019-05-05T18:24:19.625Z,99.90
2019-05-05T18:26:54.040Z,99.90
2019-05-05T18:29:29.130Z,99.90
2019-05-05T18:49:40.660Z,99.90
2019-05-05T18:51:45.383Z,99.90
2019-05-05T18:52:37.689Z,99.90
2019-05-05T18:55:07.867Z,99.90
2019-05-05T19:38:07.103Z,99.90
2019-05-05T19:40:36.813Z,99.90
2019-05-05T19:43:06.617Z,99.90
2019-05-05T19:45:36.200Z,99.90
2019-05-05T19:58:20.425Z,99.90
2019-05-05T20:01:07.690Z,99.90
2019-05-05T20:03:40.619Z,99.90
2019-05-05T20:06:14.223Z,99.90
2019-05-05T20:08:54.881Z,99.90
2019-05-05T20:15:20.921Z,99.90
2019-05-05T20:31:07.241Z,99.90
2019-05-05T20:31:34.645Z,99.90
2019-05-05T20:40:17.491Z,99.90
2019-05-05T20:43:47.426Z,99.90
2019-05-05T20:55:20.312Z,99.90
2019-05-05T20:57:04.837Z,99.90
2019-05-05T20:59:34.675Z,99.90
2019-05-05T21:02:13.753Z,99.90
2019-05-05T21:04:49.579Z,99.90
2019-05-05T21:07:26.635Z,99.90
2019-05-05T21:10:04.517Z,99.90
2019-05-05T21:12:41.753Z,99.90
2019-05-05T21:15:01.268Z,99.90
2019-05-05T21:17:30.803Z,99.90
2019-05-05T21:20:00.370Z,99.90
2019-05-05T21:22:57.608Z,99.90
2019-05-05T21:25:35.309Z,99.90
2019-05-05T21:28:05.206Z,99.90
2019-05-05T21:30:36.287Z,99.90
2019-05-05T21:33:06.598Z,99.90
2019-05-05T21:35:36.126Z,99.90
2019-05-05T21:38:05.839Z,99.90
2019-05-05T21:40:35.403Z,99.90
2019-05-05T21:43:05.263Z,99.90
2019-05-05T21:45:35.036Z,99.90
2019-05-05T21:48:04.663Z,99.90
2019-05-05T21:50:48.702Z,99.90
2019-05-05T21:53:37.230Z,99.90
2019-05-05T21:56:21.718Z,99.90
2019-05-05T21:58:53.571Z,99.90
2019-05-05T22:01:27.093Z,99.90
2019-05-05T22:03:54.735Z,99.90
2019-05-05T22:06:24.550Z,99.90
2019-05-05T22:08:54.192Z,99.90
2019-05-05T22:11:24.302Z,99.90
2019-05-05T22:13:54.187Z,99.90
2019-05-05T22:16:23.838Z,99.90
2019-05-05T22:18:54.203Z,99.90
2019-05-05T22:21:38.512Z,99.90
2019-05-05T22:24:19.764Z,99.90
2019-05-05T22:26:49.533Z,99.90
2019-05-05T22:29:19.087Z,99.90
2019-05-05T22:31:48.835Z,99.90
2019-05-05T22:34:18.374Z,99.90
2019-05-05T22:36:48.028Z,99.90
2019-05-05T22:39:24.134Z,99.90
2019-05-05T22:41:54.292Z,99.90
2019-05-05T22:44:27.159Z,99.90
2019-05-05T22:46:56.820Z,99.90
2019-05-05T22:49:26.303Z,99.90
2019-05-05T22:55:28.642Z,99.90
2019-05-05T22:57:58.836Z,99.90
2019-05-05T23:00:29.793Z,99.90
2019-05-05T23:03:06.173Z,99.90
2019-05-05T23:05:41.274Z,99.90
2019-05-05T23:08:10.850Z,99.90
2019-05-05T23:10:40.422Z,99.90
2019-05-05T23:13:09.954Z,99.90
2019-05-05T23:15:44.006Z,99.90
2019-05-05T23:18:34.618Z,99.90
2019-05-05T23:21:31.619Z,99.90
2019-05-05T23:24:23.879Z,99.90
2019-05-05T23:26:55.583Z,99.90
2019-05-05T23:29:26.625Z,99.90
2019-05-05T23:31:59.130Z,99.90
2019-05-05T23:34:31.124Z,99.90
2019-05-05T23:37:00.795Z,99.90
2019-05-05T23:39:30.338Z,99.90
2019-05-05T23:41:59.976Z,99.90
2019-05-05T23:44:29.466Z,99.90
2019-05-05T23:46:59.025Z,99.90
2019-05-05T23:49:28.516Z,99.90
2019-05-05T23:52:00.173Z,99.90
2019-05-05T23:54:29.713Z,99.90
2019-05-05T23:56:59.404Z,99.90
2019-05-05T23:59:28.935Z,99.90
